sensor_id;sensor_type;location;lat;lon;timestamp;pressure;altitude;pressure_sealevel;temperature;humidity
20043;BME280;10182;52.896;6.496;2024-02-28T00:02:08;101947.06;;;1.80;100.00
20043;BME280;10182;52.896;6.496;2024-02-28T00:07:09;101947.03;;;1.76;100.00
20043;BME280;10182;52.896;6.496;2024-02-28T00:12:15;101940.97;;;1.83;100.00
20043;BME280;10182;52.896;6.496;2024-02-28T00:17:17;101932.31;;;1.87;100.00
20043;BME280;10182;52.896;6.496;2024-02-28T00:22:22;101927.06;;;1.87;100.00
20043;BME280;10182;52.896;6.496;2024-02-28T00:27:27;101925.34;;;1.86;100.00
20043;BME280;10182;52.896;6.496;2024-02-28T00:32:29;101925.41;;;1.95;100.00
20043;BME280;10182;52.896;6.496;2024-02-28T00:37:34;101924.53;;;1.92;100.00
20043;BME280;10182;52.896;6.496;2024-02-28T00:42:37;101928.03;;;1.97;100.00
20043;BME280;10182;52.896;6.496;2024-02-28T00:47:42;101916.84;;;2.15;100.00
20043;BME280;10182;52.896;6.496;2024-02-28T00:52:47;101919.38;;;2.02;100.00
20043;BME280;10182;52.896;6.496;2024-02-28T00:57:52;101919.31;;;1.96;100.00
20043;BME280;10182;52.896;6.496;2024-02-28T01:02:53;101919.38;;;2.02;100.00
20043;BME280;10182;52.896;6.496;2024-02-28T01:07:55;101924.47;;;1.89;100.00
20043;BME280;10182;52.896;6.496;2024-02-28T01:12:58;101934.91;;;1.84;100.00
20043;BME280;10182;52.896;6.496;2024-02-28T01:18:03;101927.88;;;1.75;100.00
20043;BME280;10182;52.896;6.496;2024-02-28T01:23:07;101924.34;;;1.72;100.00
20043;BME280;10182;52.896;6.496;2024-02-28T01:28:10;101914.81;;;1.75;100.00
20043;BME280;10182;52.896;6.496;2024-02-28T01:33:12;101912.13;;;1.71;100.00
20043;BME280;10182;52.896;6.496;2024-02-28T01:38:14;101916.59;;;1.81;100.00
20043;BME280;10182;52.896;6.496;2024-02-28T01:43:17;101924.44;;;1.82;100.00
20043;BME280;10182;52.896;6.496;2024-02-28T01:48:19;101919.09;;;1.65;100.00
20043;BME280;10182;52.896;6.496;2024-02-28T01:53:20;101924.44;;;1.81;100.00
20043;BME280;10182;52.896;6.496;2024-02-28T01:58:23;101928.63;;;1.63;100.00
20043;BME280;10182;52.896;6.496;2024-02-28T02:03:27;101927.72;;;1.61;100.00
20043;BME280;10182;52.896;6.496;2024-02-28T02:08:37;101924.31;;;1.65;100.00
20043;BME280;10182;52.896;6.496;2024-02-28T02:13:48;101912.88;;;1.56;100.00
20043;BME280;10182;52.896;6.496;2024-02-28T02:18:51;101902.47;;;1.59;100.00
20043;BME280;10182;52.896;6.496;2024-02-28T02:23:54;101905.13;;;1.66;100.00
20043;BME280;10182;52.896;6.496;2024-02-28T02:28:56;101905.13;;;1.63;100.00
20043;BME280;10182;52.896;6.496;2024-02-28T02:33:57;101901.66;;;1.67;100.00
20043;BME280;10182;52.896;6.496;2024-02-28T02:39:02;101891.22;;;1.67;100.00
20043;BME280;10182;52.896;6.496;2024-02-28T02:44:04;101903.41;;;1.67;100.00
20043;BME280;10182;52.896;6.496;2024-02-28T02:49:08;101894.66;;;1.62;100.00
20043;BME280;10182;52.896;6.496;2024-02-28T02:54:14;101895.59;;;1.68;100.00
20043;BME280;10182;52.896;6.496;2024-02-28T02:59:34;101893.84;;;1.67;100.00
20043;BME280;10182;52.896;6.496;2024-02-28T03:04:37;101896.47;;;1.71;100.00
20043;BME280;10182;52.896;6.496;2024-02-28T03:09:44;101889.53;;;1.71;100.00
20043;BME280;10182;52.896;6.496;2024-02-28T03:14:45;101885.19;;;1.75;100.00
20043;BME280;10182;52.896;6.496;2024-02-28T03:19:49;101884.31;;;1.77;100.00
20043;BME280;10182;52.896;6.496;2024-02-28T03:24:52;101886.09;;;1.83;100.00
20043;BME280;10182;52.896;6.496;2024-02-28T03:29:57;101894.00;;;1.86;100.00
20043;BME280;10182;52.896;6.496;2024-02-28T03:34:58;101887.88;;;1.87;100.00
20043;BME280;10182;52.896;6.496;2024-02-28T03:40:01;101889.63;;;1.88;100.00
20043;BME280;10182;52.896;6.496;2024-02-28T03:45:05;101897.53;;;1.94;100.00
20043;BME280;10182;52.896;6.496;2024-02-28T03:50:19;101898.47;;;2.04;100.00
20043;BME280;10182;52.896;6.496;2024-02-28T03:55:22;101898.44;;;1.99;100.00
20043;BME280;10182;52.896;6.496;2024-02-28T04:00:24;101893.09;;;1.87;100.00
20043;BME280;10182;52.896;6.496;2024-02-28T04:05:27;101897.53;;;1.96;100.00
20043;BME280;10182;52.896;6.496;2024-02-28T04:10:37;101894.13;;;2.05;100.00
20043;BME280;10182;52.896;6.496;2024-02-28T04:15:39;101884.50;;;2.02;100.00
20043;BME280;10182;52.896;6.496;2024-02-28T04:20:45;101896.66;;;1.95;100.00
20043;BME280;10182;52.896;6.496;2024-02-28T04:25:48;101901.09;;;2.01;100.00
20043;BME280;10182;52.896;6.496;2024-02-28T04:30:50;101898.50;;;2.06;100.00
20043;BME280;10182;52.896;6.496;2024-02-28T04:35:54;101894.00;;;1.86;100.00
20043;BME280;10182;52.896;6.496;2024-02-28T04:40:57;101909.69;;;1.91;100.00
20043;BME280;10182;52.896;6.496;2024-02-28T04:46:10;101915.91;;;2.05;100.00
20043;BME280;10182;52.896;6.496;2024-02-28T04:51:15;101909.03;;;2.16;100.00
20043;BME280;10182;52.896;6.496;2024-02-28T04:56:19;101918.53;;;2.07;100.00
20043;BME280;10182;52.896;6.496;2024-02-28T05:01:20;101916.84;;;2.13;100.00
20043;BME280;10182;52.896;6.496;2024-02-28T05:06:23;101919.50;;;2.23;100.00
20043;BME280;10182;52.896;6.496;2024-02-28T05:11:26;101918.56;;;2.10;100.00
20043;BME280;10182;52.896;6.496;2024-02-28T05:16:27;101913.34;;;2.13;100.00
20043;BME280;10182;52.896;6.496;2024-02-28T05:21:30;101918.56;;;2.10;100.00
20043;BME280;10182;52.896;6.496;2024-02-28T05:26:34;101908.03;;;2.02;100.00
20043;BME280;10182;52.896;6.496;2024-02-28T05:31:36;101910.75;;;2.16;100.00
20043;BME280;10182;52.896;6.496;2024-02-28T05:36:40;101909.94;;;2.23;100.00
20043;BME280;10182;52.896;6.496;2024-02-28T05:41:43;101910.84;;;2.30;100.00
20043;BME280;10182;52.896;6.496;2024-02-28T05:46:45;101909.13;;;2.33;100.00
20043;BME280;10182;52.896;6.496;2024-02-28T05:51:47;101909.94;;;2.23;100.00
20043;BME280;10182;52.896;6.496;2024-02-28T05:56:52;101916.03;;;2.25;100.00
20043;BME280;10182;52.896;6.496;2024-02-28T06:02:01;101921.25;;;2.25;100.00
20043;BME280;10182;52.896;6.496;2024-02-28T06:07:06;101929.19;;;2.36;100.00
20043;BME280;10182;52.896;6.496;2024-02-28T06:12:14;101935.34;;;2.44;100.00
20043;BME280;10182;52.896;6.496;2024-02-28T06:17:17;101928.41;;;2.52;100.00
20043;BME280;10182;52.896;6.496;2024-02-28T06:22:28;101927.50;;;2.46;100.00
20043;BME280;10182;52.896;6.496;2024-02-28T06:27:31;101943.19;;;2.46;100.00
20043;BME280;10182;52.896;6.496;2024-02-28T06:32:35;101935.41;;;2.53;100.00
20043;BME280;10182;52.896;6.496;2024-02-28T06:37:40;101942.41;;;2.62;100.00
20043;BME280;10182;52.896;6.496;2024-02-28T06:42:45;101945.88;;;2.58;100.00
20043;BME280;10182;52.896;6.496;2024-02-28T06:47:47;101948.50;;;2.57;100.00
20043;BME280;10182;52.896;6.496;2024-02-28T06:52:54;101947.69;;;2.67;100.00
20043;BME280;10182;52.896;6.496;2024-02-28T06:57:57;101960.81;;;2.78;100.00
20043;BME280;10182;52.896;6.496;2024-02-28T07:03:06;101968.69;;;2.76;100.00
20043;BME280;10182;52.896;6.496;2024-02-28T07:08:08;101977.44;;;2.91;100.00
20043;BME280;10182;52.896;6.496;2024-02-28T07:13:27;101974.03;;;3.05;100.00
20043;BME280;10182;52.896;6.496;2024-02-28T07:18:31;101977.50;;;2.98;100.00
20043;BME280;10182;52.896;6.496;2024-02-28T07:23:33;101981.88;;;2.99;100.00
20043;BME280;10182;52.896;6.496;2024-02-28T07:28:36;101982.78;;;3.14;100.00
20043;BME280;10182;52.896;6.496;2024-02-28T07:33:43;101985.47;;;3.28;100.00
20043;BME280;10182;52.896;6.496;2024-02-28T07:38:45;101995.88;;;3.18;100.00
20043;BME280;10182;52.896;6.496;2024-02-28T07:43:51;101999.44;;;3.28;100.00
20043;BME280;10182;52.896;6.496;2024-02-28T07:48:53;102001.16;;;3.25;100.00
20043;BME280;10182;52.896;6.496;2024-02-28T07:53:54;102003.78;;;3.21;100.00
20043;BME280;10182;52.896;6.496;2024-02-28T07:59:09;102002.94;;;3.32;100.00
20043;BME280;10182;52.896;6.496;2024-02-28T08:04:11;102006.47;;;3.45;100.00
20043;BME280;10182;52.896;6.496;2024-02-28T08:09:12;102004.72;;;3.45;100.00
20043;BME280;10182;52.896;6.496;2024-02-28T08:14:17;102023.03;;;3.37;100.00
20043;BME280;10182;52.896;6.496;2024-02-28T08:19:22;102037.88;;;3.38;100.00
20043;BME280;10182;52.896;6.496;2024-02-28T08:24:23;102035.25;;;3.34;100.00
20043;BME280;10182;52.896;6.496;2024-02-28T08:29:31;102049.25;;;3.41;100.00
20043;BME280;10182;52.896;6.496;2024-02-28T08:34:35;102061.50;;;3.46;100.00
20043;BME280;10182;52.896;6.496;2024-02-28T08:39:37;102058.03;;;3.50;100.00
20043;BME280;10182;52.896;6.496;2024-02-28T08:44:41;102057.16;;;3.56;100.00
20043;BME280;10182;52.896;6.496;2024-02-28T08:49:43;102050.19;;;3.64;100.00
20043;BME280;10182;52.896;6.496;2024-02-28T08:54:47;102046.72;;;3.73;100.00
20043;BME280;10182;52.896;6.496;2024-02-28T08:59:55;102052.00;;;3.85;100.00
20043;BME280;10182;52.896;6.496;2024-02-28T09:04:57;102051.13;;;3.88;100.00
20043;BME280;10182;52.896;6.496;2024-02-28T09:09:59;102057.28;;;3.99;100.00
20043;BME280;10182;52.896;6.496;2024-02-28T09:15:05;102057.25;;;3.96;100.00
20043;BME280;10182;52.896;6.496;2024-02-28T09:20:08;102046.81;;;4.13;100.00
20043;BME280;10182;52.896;6.496;2024-02-28T09:25:10;102055.56;;;4.29;100.00
20043;BME280;10182;52.896;6.496;2024-02-28T09:30:14;102057.31;;;4.38;100.00
20043;BME280;10182;52.896;6.496;2024-02-28T09:35:16;102059.03;;;4.47;100.00
20043;BME280;10182;52.896;6.496;2024-02-28T09:40:19;102066.06;;;4.66;100.00
20043;BME280;10182;52.896;6.496;2024-02-28T09:45:27;102059.03;;;4.78;100.00
20043;BME280;10182;52.896;6.496;2024-02-28T09:50:33;102059.03;;;4.85;100.00
20043;BME280;10182;52.896;6.496;2024-02-28T09:55:40;102058.13;;;4.88;100.00
20043;BME280;10182;52.896;6.496;2024-02-28T10:00:47;102058.97;;;5.02;100.00
20043;BME280;10182;52.896;6.496;2024-02-28T10:05:48;102063.38;;;4.86;100.00
20043;BME280;10182;52.896;6.496;2024-02-28T10:10:53;102059.91;;;4.83;100.00
20043;BME280;10182;52.896;6.496;2024-02-28T10:15:57;102066.88;;;4.96;100.00
20043;BME280;10182;52.896;6.496;2024-02-28T10:21:00;102074.72;;;5.02;100.00
20043;BME280;10182;52.896;6.496;2024-02-28T10:26:02;102080.88;;;4.98;100.00
20043;BME280;10182;52.896;6.496;2024-02-28T10:31:08;102079.94;;;5.15;100.00
20043;BME280;10182;52.896;6.496;2024-02-28T10:36:13;102092.16;;;5.34;100.00
20043;BME280;10182;52.896;6.496;2024-02-28T10:41:15;102083.31;;;5.51;100.00
20043;BME280;10182;52.896;6.496;2024-02-28T10:46:20;102088.53;;;5.65;100.00
20043;BME280;10182;52.896;6.496;2024-02-28T10:51:25;102076.28;;;5.64;100.00
20043;BME280;10182;52.896;6.496;2024-02-28T10:56:28;102074.56;;;5.58;100.00
20043;BME280;10182;52.896;6.496;2024-02-28T11:01:32;102069.16;;;5.83;100.00
20043;BME280;10182;52.896;6.496;2024-02-28T11:06:34;102056.81;;;5.92;100.00
20043;BME280;10182;52.896;6.496;2024-02-28T11:11:36;102051.53;;;6.03;100.00
20043;BME280;10182;52.896;6.496;2024-02-28T11:16:41;102048.91;;;6.03;100.00
20043;BME280;10182;52.896;6.496;2024-02-28T11:21:52;102047.06;;;6.13;100.00
20043;BME280;10182;52.896;6.496;2024-02-28T11:26:55;102049.59;;;6.27;100.00
20043;BME280;10182;52.896;6.496;2024-02-28T11:31:58;102046.94;;;6.33;100.00
20043;BME280;10182;52.896;6.496;2024-02-28T11:37:02;102042.50;;;6.40;100.00
20043;BME280;10182;52.896;6.496;2024-02-28T11:42:11;102030.03;;;6.59;100.00
20043;BME280;10182;52.896;6.496;2024-02-28T11:47:15;102023.03;;;6.53;100.00
20043;BME280;10182;52.896;6.496;2024-02-28T11:57:21;102010.19;;;7.06;100.00
20043;BME280;10182;52.896;6.496;2024-02-28T12:02:28;102010.94;;;7.16;100.00
20043;BME280;10182;52.896;6.496;2024-02-28T12:07:32;102012.53;;;7.29;100.00
20043;BME280;10182;52.896;6.496;2024-02-28T12:12:34;102011.09;;;7.05;100.00
20043;BME280;10182;52.896;6.496;2024-02-28T12:17:37;102003.91;;;7.18;100.00
20043;BME280;10182;52.896;6.496;2024-02-28T12:22:39;102008.31;;;7.19;100.00
20043;BME280;10182;52.896;6.496;2024-02-28T12:27:43;102004.78;;;7.19;100.00
20043;BME280;10182;52.896;6.496;2024-02-28T12:32:46;102006.72;;;7.04;100.00
20043;BME280;10182;52.896;6.496;2024-02-28T12:37:50;102006.75;;;7.00;100.00
20043;BME280;10182;52.896;6.496;2024-02-28T12:42:54;102006.84;;;6.93;100.00
20043;BME280;10182;52.896;6.496;2024-02-28T12:47:57;102013.97;;;6.85;100.00
20043;BME280;10182;52.896;6.496;2024-02-28T12:53:03;101997.16;;;6.95;100.00
20043;BME280;10182;52.896;6.496;2024-02-28T12:58:06;102002.41;;;6.97;100.00
20043;BME280;10182;52.896;6.496;2024-02-28T13:03:13;101996.25;;;6.98;100.00
20043;BME280;10182;52.896;6.496;2024-02-28T13:08:16;101989.22;;;7.00;100.00
20043;BME280;10182;52.896;6.496;2024-02-28T13:13:18;101979.63;;;6.94;100.00
20043;BME280;10182;52.896;6.496;2024-02-28T13:18:21;101985.72;;;6.97;100.00
20043;BME280;10182;52.896;6.496;2024-02-28T13:23:23;101976.09;;;6.94;100.00
20043;BME280;10182;52.896;6.496;2024-02-28T13:28:28;101980.44;;;6.98;100.00
20043;BME280;10182;52.896;6.496;2024-02-28T13:33:32;101976.09;;;6.94;100.00
20043;BME280;10182;52.896;6.496;2024-02-28T13:38:33;101965.44;;;7.05;100.00
20043;BME280;10182;52.896;6.496;2024-02-28T13:43:35;101967.16;;;7.07;100.00
20043;BME280;10182;52.896;6.496;2024-02-28T13:48:39;101953.91;;;7.15;100.00
20043;BME280;10182;52.896;6.496;2024-02-28T13:53:40;101953.75;;;7.26;100.00
20043;BME280;10182;52.896;6.496;2024-02-28T13:58:42;101947.59;;;7.25;100.00
20043;BME280;10182;52.896;6.496;2024-02-28T14:03:45;101940.25;;;7.48;100.00
20043;BME280;10182;52.896;6.496;2024-02-28T14:08:47;101935.91;;;7.45;100.00
20043;BME280;10182;52.896;6.496;2024-02-28T14:13:48;101925.31;;;7.48;100.00
20043;BME280;10182;52.896;6.496;2024-02-28T14:18:52;101934.91;;;7.54;100.00
20043;BME280;10182;52.896;6.496;2024-02-28T14:23:59;101924.63;;;7.37;100.00
20043;BME280;10182;52.896;6.496;2024-02-28T14:29:01;101926.47;;;7.30;100.00
20043;BME280;10182;52.896;6.496;2024-02-28T14:34:08;101925.66;;;7.23;100.00
20043;BME280;10182;52.896;6.496;2024-02-28T14:39:10;101908.06;;;7.25;100.00
20043;BME280;10182;52.896;6.496;2024-02-28T14:44:15;101910.81;;;7.18;100.00
20043;BME280;10182;52.896;6.496;2024-02-28T14:49:20;101906.53;;;7.09;100.00
20043;BME280;10182;52.896;6.496;2024-02-28T14:54:23;101906.56;;;7.07;100.00
20043;BME280;10182;52.896;6.496;2024-02-28T14:59:25;101907.41;;;7.09;100.00
20043;BME280;10182;52.896;6.496;2024-02-28T15:04:28;101904.59;;;7.23;100.00
20043;BME280;10182;52.896;6.496;2024-02-28T15:09:32;101911.59;;;7.23;100.00
20043;BME280;10182;52.896;6.496;2024-02-28T15:14:38;101910.63;;;7.32;100.00
20043;BME280;10182;52.896;6.496;2024-02-28T15:19:41;101914.94;;;7.37;100.00
20043;BME280;10182;52.896;6.496;2024-02-28T15:24:46;101909.47;;;7.50;100.00
20043;BME280;10182;52.896;6.496;2024-02-28T15:29:54;101907.69;;;7.50;100.00
20043;BME280;10182;52.896;6.496;2024-02-28T15:34:57;101900.97;;;7.31;100.00
20043;BME280;10182;52.896;6.496;2024-02-28T15:39:59;101895.53;;;7.41;100.00
20043;BME280;10182;52.896;6.496;2024-02-28T15:45:00;101883.41;;;7.29;100.00
20043;BME280;10182;52.896;6.496;2024-02-28T15:50:07;101876.41;;;7.27;100.00
20043;BME280;10182;52.896;6.496;2024-02-28T15:55:10;101874.69;;;7.24;100.00
20043;BME280;10182;52.896;6.496;2024-02-28T16:00:13;101865.03;;;7.25;100.00
20043;BME280;10182;52.896;6.496;2024-02-28T16:05:22;101871.25;;;7.21;100.00
20043;BME280;10182;52.896;6.496;2024-02-28T16:10:25;101862.66;;;7.05;100.00
20043;BME280;10182;52.896;6.496;2024-02-28T16:15:26;101859.06;;;7.10;100.00
20043;BME280;10182;52.896;6.496;2024-02-28T16:20:30;101855.66;;;7.04;100.00
20043;BME280;10182;52.896;6.496;2024-02-28T16:25:32;101850.38;;;7.05;100.00
20043;BME280;10182;52.896;6.496;2024-02-28T16:30:42;101845.06;;;7.08;100.00
20043;BME280;10182;52.896;6.496;2024-02-28T16:35:49;101831.06;;;7.05;100.00
20043;BME280;10182;52.896;6.496;2024-02-28T16:40:50;101831.84;;;7.11;100.00
20043;BME280;10182;52.896;6.496;2024-02-28T16:45:52;101822.16;;;7.14;100.00
20043;BME280;10182;52.896;6.496;2024-02-28T16:50:57;101820.59;;;7.00;100.00
20043;BME280;10182;52.896;6.496;2024-02-28T16:56:02;101839.84;;;7.04;100.00
20043;BME280;10182;52.896;6.496;2024-02-28T17:01:09;101836.38;;;7.02;100.00
20043;BME280;10182;52.896;6.496;2024-02-28T17:06:20;101834.72;;;6.96;100.00
20043;BME280;10182;52.896;6.496;2024-02-28T17:11:22;101822.47;;;6.92;100.00
20043;BME280;10182;52.896;6.496;2024-02-28T17:16:23;101818.16;;;6.86;100.00
20043;BME280;10182;52.896;6.496;2024-02-28T17:21:26;101826.94;;;6.85;100.00
20043;BME280;10182;52.896;6.496;2024-02-28T17:26:28;101824.25;;;6.90;100.00
20043;BME280;10182;52.896;6.496;2024-02-28T17:31:30;101831.47;;;6.75;100.00
20043;BME280;10182;52.896;6.496;2024-02-28T17:36:41;101834.25;;;6.65;100.00
20043;BME280;10182;52.896;6.496;2024-02-28T17:41:45;101826.25;;;6.74;100.00
20043;BME280;10182;52.896;6.496;2024-02-28T17:46:48;101823.69;;;6.66;100.00
20043;BME280;10182;52.896;6.496;2024-02-28T17:51:51;101816.78;;;6.59;100.00
20043;BME280;10182;52.896;6.496;2024-02-28T17:56:53;101823.81;;;6.57;100.00
20043;BME280;10182;52.896;6.496;2024-02-28T18:01:54;101816.06;;;6.44;100.00
20043;BME280;10182;52.896;6.496;2024-02-28T18:07:03;101815.22;;;6.44;100.00
20043;BME280;10182;52.896;6.496;2024-02-28T18:12:05;101803.75;;;6.45;100.00
20043;BME280;10182;52.896;6.496;2024-02-28T18:17:08;101808.16;;;6.46;100.00
20043;BME280;10182;52.896;6.496;2024-02-28T18:22:11;101795.94;;;6.40;100.00
20043;BME280;10182;52.896;6.496;2024-02-28T18:27:14;101788.91;;;6.42;100.00
20043;BME280;10182;52.896;6.496;2024-02-28T18:32:16;101791.69;;;6.30;100.00
20043;BME280;10182;52.896;6.496;2024-02-28T18:37:19;101779.44;;;6.26;100.00
20043;BME280;10182;52.896;6.496;2024-02-28T18:42:21;101783.78;;;6.29;100.00
20043;BME280;10182;52.896;6.496;2024-02-28T18:47:23;101771.47;;;6.32;100.00
20043;BME280;10182;52.896;6.496;2024-02-28T18:52:27;101769.88;;;6.19;100.00
20043;BME280;10182;52.896;6.496;2024-02-28T18:57:30;101775.16;;;6.19;100.00
20043;BME280;10182;52.896;6.496;2024-02-28T19:02:32;101766.38;;;6.18;100.00
20043;BME280;10182;52.896;6.496;2024-02-28T19:07:35;101753.06;;;6.32;100.00
20043;BME280;10182;52.896;6.496;2024-02-28T19:12:37;101749.59;;;6.27;100.00
20043;BME280;10182;52.896;6.496;2024-02-28T19:17:39;101756.66;;;6.25;100.00
20043;BME280;10182;52.896;6.496;2024-02-28T19:22:42;101752.16;;;6.35;100.00
20043;BME280;10182;52.896;6.496;2024-02-28T19:27:44;101747.75;;;6.35;100.00
20043;BME280;10182;52.896;6.496;2024-02-28T19:32:45;101752.06;;;6.41;100.00
20043;BME280;10182;52.896;6.496;2024-02-28T19:37:51;101738.00;;;6.42;100.00
20043;BME280;10182;52.896;6.496;2024-02-28T19:42:52;101733.63;;;6.42;100.00
20043;BME280;10182;52.896;6.496;2024-02-28T19:47:56;101736.28;;;6.42;100.00
20043;BME280;10182;52.896;6.496;2024-02-28T19:52:59;101738.84;;;6.46;100.00
20043;BME280;10182;52.896;6.496;2024-02-28T19:58:01;101738.00;;;6.42;100.00
20043;BME280;10182;52.896;6.496;2024-02-28T20:03:03;101743.16;;;6.51;100.00
20043;BME280;10182;52.896;6.496;2024-02-28T20:08:06;101728.28;;;6.47;100.00
20043;BME280;10182;52.896;6.496;2024-02-28T20:13:10;101721.34;;;6.43;100.00
20043;BME280;10182;52.896;6.496;2024-02-28T20:18:12;101728.22;;;6.52;100.00
20043;BME280;10182;52.896;6.496;2024-02-28T20:23:15;101712.34;;;6.58;100.00
20043;BME280;10182;52.896;6.496;2024-02-28T20:28:17;101701.00;;;6.53;100.00
20043;BME280;10182;52.896;6.496;2024-02-28T20:33:20;101704.41;;;6.61;100.00
20043;BME280;10182;52.896;6.496;2024-02-28T20:38:23;101690.31;;;6.64;100.00
20043;BME280;10182;52.896;6.496;2024-02-28T20:43:28;101686.84;;;6.60;100.00
20043;BME280;10182;52.896;6.496;2024-02-28T20:48:31;101686.84;;;6.63;100.00
20043;BME280;10182;52.896;6.496;2024-02-28T20:53:37;101669.25;;;6.65;100.00
20043;BME280;10182;52.896;6.496;2024-02-28T20:58:41;101661.34;;;6.65;100.00
20043;BME280;10182;52.896;6.496;2024-02-28T21:03:48;101661.41;;;6.62;100.00
20043;BME280;10182;52.896;6.496;2024-02-28T21:08:54;101652.44;;;6.72;100.00
20043;BME280;10182;52.896;6.496;2024-02-28T21:14:04;101653.44;;;6.65;100.00
20043;BME280;10182;52.896;6.496;2024-02-28T21:19:07;101636.63;;;6.75;100.00
20043;BME280;10182;52.896;6.496;2024-02-28T21:24:10;101634.88;;;6.74;100.00
20043;BME280;10182;52.896;6.496;2024-02-28T21:29:14;101628.66;;;6.78;100.00
20043;BME280;10182;52.896;6.496;2024-02-28T21:34:25;101626.78;;;6.85;100.00
20043;BME280;10182;52.896;6.496;2024-02-28T21:39:35;101616.22;;;6.87;100.00
20043;BME280;10182;52.896;6.496;2024-02-28T21:44:36;101607.44;;;6.88;100.00
20043;BME280;10182;52.896;6.496;2024-02-28T21:49:39;101598.63;;;6.89;100.00
20043;BME280;10182;52.896;6.496;2024-02-28T21:54:43;101589.88;;;6.87;100.00
20043;BME280;10182;52.896;6.496;2024-02-28T21:59:44;101593.38;;;6.87;100.00
20043;BME280;10182;52.896;6.496;2024-02-28T22:04:49;101588.19;;;6.83;100.00
20043;BME280;10182;52.896;6.496;2024-02-28T22:09:55;101586.47;;;6.82;100.00
20043;BME280;10182;52.896;6.496;2024-02-28T22:15:03;101580.41;;;6.78;100.00
20043;BME280;10182;52.896;6.496;2024-02-28T22:20:05;101574.41;;;6.70;100.00
20043;BME280;10182;52.896;6.496;2024-02-28T22:25:23;101568.19;;;6.72;100.00
20043;BME280;10182;52.896;6.496;2024-02-28T22:30:24;101556.72;;;6.75;100.00
20043;BME280;10182;52.896;6.496;2024-02-28T22:35:26;101558.72;;;6.62;100.00
20043;BME280;10182;52.896;6.496;2024-02-28T22:40:29;101541.91;;;6.69;100.00
20043;BME280;10182;52.896;6.496;2024-02-28T22:45:32;101553.47;;;6.60;100.00
20043;BME280;10182;52.896;6.496;2024-02-28T22:50:37;101548.19;;;6.62;100.00
20043;BME280;10182;52.896;6.496;2024-02-28T22:55:48;101527.13;;;6.62;100.00
20043;BME280;10182;52.896;6.496;2024-02-28T23:00:50;101521.91;;;6.60;100.00
20043;BME280;10182;52.896;6.496;2024-02-28T23:05:53;101514.84;;;6.61;100.00
20043;BME280;10182;52.896;6.496;2024-02-28T23:11:03;101513.28;;;6.51;100.00
20043;BME280;10182;52.896;6.496;2024-02-28T23:16:05;101507.88;;;6.58;100.00
20043;BME280;10182;52.896;6.496;2024-02-28T23:21:09;101495.94;;;6.39;100.00
20043;BME280;10182;52.896;6.496;2024-02-28T23:26:14;101487.38;;;6.28;100.00
20043;BME280;10182;52.896;6.496;2024-02-28T23:31:16;101479.66;;;6.17;100.00
20043;BME280;10182;52.896;6.496;2024-02-28T23:36:21;101488.63;;;6.03;100.00
20043;BME280;10182;52.896;6.496;2024-02-28T23:41:25;101483.41;;;5.97;100.00
20043;BME280;10182;52.896;6.496;2024-02-28T23:46:35;101478.22;;;5.94;100.00
20043;BME280;10182;52.896;6.496;2024-02-28T23:51:37;101468.72;;;5.85;100.00
20043;BME280;10182;52.896;6.496;2024-02-28T23:56:47;101466.97;;;5.84;100.00
